Time;durP1;ratioP1;P1;durP2;ratioP2;P2;SDS_P1;SDS_P2;PMS_P1;PMS_P2;Temp;Humidity;BMP_temperature;BMP_pressure;BME280_temperature;BME280_humidity;BME280_pressure;Samples;Min_cycle;Max_cycle;Signal;HPM_P1;HPM_P2
2022/10/17 00:00:27;;;;;;;;;;;;;;;;;;4988829;28;19925;-61
2022/10/17 00:02:52;;;;;;;;;;;;;;;;;;4986123;28;19917;-62
2022/10/17 00:05:19;;;;;;;;;;;;;;;;;;4964134;28;21790;-64
2022/10/17 00:07:45;;;;;;;;;;;;;;;;;;4985724;28;19922;-62
2022/10/17 00:10:13;;;;;;;;;;;;;;;;;;4985715;28;21254;-61
2022/10/17 00:12:38;;;;;;;;;;;;;;;;;;4967388;28;20805;-63
2022/10/17 00:15:06;;;;;;;;;;;;;;;;;;4985500;28;19921;-62
2022/10/17 00:17:31;;;;;;;;;;;;;;;;;;4981584;28;20743;-63
2022/10/17 00:20:02;;;;;;;;;;;;;;;;;;4982272;28;19962;-62
2022/10/17 00:22:27;;;;;;;;;;;;;;;;;;4988271;28;20020;-62
2022/10/17 00:24:53;;;;;;;;;;;;;;;;;;4988389;28;19950;-62
2022/10/17 00:27:18;;;;;;;;;;;;;;;;;;4980612;28;20365;-62
2022/10/17 00:29:46;;;;;;;;;;;;;;;;;;5000654;28;19968;-62
2022/10/17 00:32:13;;;;;;;;;;;;;;;;;;4985699;28;20384;-63
2022/10/17 00:34:38;;;;;;;;;;;;;;;;;;4986790;28;19999;-63
2022/10/17 00:37:04;;;;;;;;;;;;;;;;;;4979795;28;20034;-62
2022/10/17 00:39:29;;;;;;;;;;;;;;;;;;4986304;28;21573;-62
2022/10/17 00:41:57;;;;;;;;;;;;;;;;;;4986262;28;19929;-62
2022/10/17 00:44:25;;;;;;;;;;;;;;;;;;4979296;28;19921;-62
2022/10/17 00:46:53;;;;;;;;;;;;;;;;;;4984368;28;20304;-62
2022/10/17 00:49:21;;;;;;;;;;;;;;;;;;4986594;28;19941;-62
2022/10/17 00:51:50;;;;;;;;;;;;;;;;;;4984944;28;19925;-62
2022/10/17 00:54:18;;;;;;;;;;;;;;;;;;4964398;28;19953;-64
2022/10/17 00:56:44;;;;;;;;;;;;;;;;;;4984414;28;19918;-62
2022/10/17 00:59:12;;;;;;;;;;;;;;;;;;4966174;28;20573;-62
2022/10/17 01:01:42;;;;;;;;;;;;;;;;;;4983509;28;19921;-63
2022/10/17 01:04:09;;;;;;;;;;;;;;;;;;4987419;28;20047;-64
2022/10/17 01:06:37;;;;;;;;;;;;;;;;;;4985335;28;19918;-63
2022/10/17 01:09:02;;;;;;;;;;;;;;;;;;4969155;28;19970;-63
2022/10/17 01:11:28;;;;;;;;;;;;;;;;;;4984882;28;20044;-62
2022/10/17 01:13:54;;;;;;;;;;;;;;;;;;4994323;28;19939;-62
2022/10/17 01:16:19;;;;;;;;;;;;;;;;;;4984221;28;19928;-63
2022/10/17 01:18:44;;;;;;;;;;;;;;;;;;4978458;28;20009;-62
2022/10/17 01:21:12;;;;;;;;;;;;;;;;;;4983832;28;20036;-62
2022/10/17 01:23:38;;;;;;;;;;;;;;;;;;4983255;28;19928;-63
2022/10/17 01:26:04;;;;;;;;;;;;;;;;;;4983426;28;19918;-63
2022/10/17 01:28:30;;;;;;;;;;;;;;;;;;4984181;28;20032;-62
2022/10/17 01:30:57;;;;;;;;;;;;;;;;;;4986589;28;19921;-61
2022/10/17 01:33:23;;;;;;;;;;;;;;;;;;4979650;28;20438;-62
2022/10/17 01:35:48;;;;;;;;;;;;;;;;;;4983468;28;20016;-61
2022/10/17 01:38:13;;;;;;;;;;;;;;;;;;4983251;28;19932;-63
2022/10/17 01:40:41;;;;;;;;;;;;;;;;;;4985328;28;19948;-62
2022/10/17 01:43:07;;;;;;;;;;;;;;;;;;4993350;28;20328;-62
2022/10/17 01:45:32;;;;;;;;;;;;;;;;;;4977862;28;19932;-61
2022/10/17 01:47:59;;;;;;;;;;;;;;;;;;4984225;28;19918;-62
2022/10/17 01:50:27;;;;;;;;;;;;;;;;;;4983401;28;19925;-63
2022/10/17 01:52:55;;;;;;;;;;;;;;;;;;4986676;28;19921;-63
2022/10/17 01:55:23;;;;;;;;;;;;;;;;;;4978056;28;19925;-64
2022/10/17 01:57:48;;;;;;;;;;;;;;;;;;4984151;28;20488;-63
2022/10/17 02:00:14;;;;;;;;;;;;;;;;;;4982678;28;19921;-62
2022/10/17 02:02:40;;;;;;;;;;;;;;;;;;4977256;28;20020;-62
2022/10/17 02:05:07;;;;;;;;;;;;;;;;;;4978809;28;20304;-62
2022/10/17 02:07:33;;;;;;;;;;;;;;;;;;4976035;28;19921;-63
2022/10/17 02:10:01;;;;;;;;;;;;;;;;;;4978533;28;19926;-63
2022/10/17 02:12:26;;;;;;;;;;;;;;;;;;4965133;28;19921;-61
2022/10/17 02:14:52;;;;;;;;;;;;;;;;;;4979270;28;19917;-64
2022/10/17 02:17:17;;;;;;;;;;;;;;;;;;4984112;28;19968;-63
2022/10/17 02:19:42;;;;;;;;;;;;;;;;;;4978572;28;20325;-63
2022/10/17 02:22:08;;;;;;;;;;;;;;;;;;4986036;28;19922;-64
2022/10/17 02:24:36;;;;;;;;;;;;;;;;;;4983712;28;20099;-63
2022/10/17 02:27:04;;;;;;;;;;;;;;;;;;4959020;28;19984;-64
2022/10/17 02:29:29;;;;;;;;;;;;;;;;;;4983009;28;20478;-64
2022/10/17 02:31:58;;;;;;;;;;;;;;;;;;4983946;28;19925;-63
2022/10/17 02:34:23;;;;;;;;;;;;;;;;;;4986150;28;20008;-62
2022/10/17 02:36:48;;;;;;;;;;;;;;;;;;4982140;28;19921;-62
2022/10/17 02:39:14;;;;;;;;;;;;;;;;;;4985118;28;19917;-63
2022/10/17 02:41:39;;;;;;;;;;;;;;;;;;4984665;28;19956;-62
2022/10/17 02:44:04;;;;;;;;;;;;;;;;;;4985114;28;19921;-63
2022/10/17 02:46:30;;;;;;;;;;;;;;;;;;4977618;28;19943;-63
2022/10/17 02:48:55;;;;;;;;;;;;;;;;;;4983070;28;19926;-63
2022/10/17 02:51:23;;;;;;;;;;;;;;;;;;4978387;28;20381;-63
2022/10/17 02:53:48;;;;;;;;;;;;;;;;;;4982214;28;19929;-63
2022/10/17 02:56:16;;;;;;;;;;;;;;;;;;4988446;28;19963;-64
2022/10/17 02:58:41;;;;;;;;;;;;;;;;;;4987523;28;20604;-63
2022/10/17 03:01:07;;;;;;;;;;;;;;;;;;4988215;28;21963;-63
2022/10/17 03:03:32;;;;;;;;;;;;;;;;;;4965156;28;19933;-64
2022/10/17 03:05:57;;;;;;;;;;;;;;;;;;4987997;28;19924;-64
2022/10/17 03:08:24;;;;;;;;;;;;;;;;;;4988468;28;19922;-63
2022/10/17 03:10:50;;;;;;;;;;;;;;;;;;4987320;28;19999;-62
2022/10/17 03:13:15;;;;;;;;;;;;;;;;;;4981803;28;19941;-64
2022/10/17 03:15:40;;;;;;;;;;;;;;;;;;4987330;28;19922;-62
2022/10/17 03:18:05;;;;;;;;;;;;;;;;;;4972706;28;19926;-64
2022/10/17 03:20:31;;;;;;;;;;;;;;;;;;4988384;28;19918;-61
2022/10/17 03:22:57;;;;;;;;;;;;;;;;;;4986401;28;20475;-62
2022/10/17 03:25:22;;;;;;;;;;;;;;;;;;4997635;28;19917;-63
2022/10/17 03:27:48;;;;;;;;;;;;;;;;;;4980156;28;19932;-64
2022/10/17 03:30:13;;;;;;;;;;;;;;;;;;4979201;28;20286;-63
2022/10/17 03:32:38;;;;;;;;;;;;;;;;;;4985724;28;19931;-62
2022/10/17 03:35:04;;;;;;;;;;;;;;;;;;4981577;28;19979;-62
2022/10/17 03:37:29;;;;;;;;;;;;;;;;;;4987586;28;20012;-62
2022/10/17 03:39:54;;;;;;;;;;;;;;;;;;4980671;28;20563;-63
2022/10/17 03:42:20;;;;;;;;;;;;;;;;;;4986796;28;19936;-63
2022/10/17 03:44:46;;;;;;;;;;;;;;;;;;4986486;28;20469;-62
2022/10/17 03:47:11;;;;;;;;;;;;;;;;;;4984710;28;19917;-62
2022/10/17 03:49:38;;;;;;;;;;;;;;;;;;4985177;28;20016;-61
2022/10/17 03:52:06;;;;;;;;;;;;;;;;;;4985202;28;19926;-61
2022/10/17 03:54:31;;;;;;;;;;;;;;;;;;4980915;28;19928;-59
2022/10/17 03:56:57;;;;;;;;;;;;;;;;;;4986950;28;19921;-61
2022/10/17 03:59:22;;;;;;;;;;;;;;;;;;4980944;28;20044;-62
2022/10/17 04:01:47;;;;;;;;;;;;;;;;;;4988360;28;20008;-61
2022/10/17 04:04:13;;;;;;;;;;;;;;;;;;4987066;28;19922;-63
2022/10/17 04:06:38;;;;;;;;;;;;;;;;;;4985174;28;20009;-62
2022/10/17 04:09:04;;;;;;;;;;;;;;;;;;4988820;28;20274;-62
2022/10/17 04:11:29;;;;;;;;;;;;;;;;;;4985981;28;19926;-62
2022/10/17 04:13:55;;;;;;;;;;;;;;;;;;4986732;28;21273;-62
2022/10/17 04:16:20;;;;;;;;;;;;;;;;;;4980974;28;20325;-62
2022/10/17 04:18:46;;;;;;;;;;;;;;;;;;4970437;28;19926;-61
2022/10/17 04:21:14;;;;;;;;;;;;;;;;;;4980796;28;19923;-61
2022/10/17 04:23:39;;;;;;;;;;;;;;;;;;4986877;28;19940;-61
2022/10/17 04:26:04;;;;;;;;;;;;;;;;;;4985266;28;19921;-61
2022/10/17 04:28:30;;;;;;;;;;;;;;;;;;4986350;28;20664;-63
2022/10/17 04:30:55;;;;;;;;;;;;;;;;;;4988124;28;20000;-62
2022/10/17 04:33:21;;;;;;;;;;;;;;;;;;4979657;28;20354;-61
2022/10/17 04:35:49;;;;;;;;;;;;;;;;;;4985092;28;20042;-61
2022/10/17 04:38:15;;;;;;;;;;;;;;;;;;4987585;28;20008;-60
2022/10/17 04:40:40;;;;;;;;;;;;;;;;;;4984951;28;19932;-61
2022/10/17 04:43:05;;;;;;;;;;;;;;;;;;4983954;28;19922;-62
2022/10/17 04:45:31;;;;;;;;;;;;;;;;;;4963912;28;20041;-62
2022/10/17 04:47:56;;;;;;;;;;;;;;;;;;4985121;28;20297;-63
2022/10/17 04:50:21;;;;;;;;;;;;;;;;;;4981162;28;20373;-62
2022/10/17 04:52:47;;;;;;;;;;;;;;;;;;4985251;28;19922;-62
2022/10/17 04:55:12;;;;;;;;;;;;;;;;;;4985759;28;19918;-61
2022/10/17 04:57:37;;;;;;;;;;;;;;;;;;4986078;28;20293;-62
2022/10/17 05:00:05;;;;;;;;;;;;;;;;;;4978232;28;20369;-61
2022/10/17 05:02:31;;;;;;;;;;;;;;;;;;4987470;28;19925;-61
2022/10/17 05:04:56;;;;;;;;;;;;;;;;;;4984176;28;19921;-60
2022/10/17 05:07:22;;;;;;;;;;;;;;;;;;4963452;28;19917;-61
2022/10/17 05:09:47;;;;;;;;;;;;;;;;;;4986291;28;21913;-63
2022/10/17 05:12:13;;;;;;;;;;;;;;;;;;4983707;28;20346;-61
2022/10/17 05:14:38;;;;;;;;;;;;;;;;;;4983542;28;20008;-61
2022/10/17 05:17:04;;;;;;;;;;;;;;;;;;4985940;28;19929;-63
2022/10/17 05:19:29;;;;;;;;;;;;;;;;;;4985259;28;19921;-58
2022/10/17 05:21:55;;;;;;;;;;;;;;;;;;4978649;28;20024;-60
2022/10/17 05:24:20;;;;;;;;;;;;;;;;;;4986681;28;19918;-60
2022/10/17 05:26:45;;;;;;;;;;;;;;;;;;4984909;28;19928;-60
2022/10/17 05:29:11;;;;;;;;;;;;;;;;;;4961770;28;20285;-61
2022/10/17 05:31:36;;;;;;;;;;;;;;;;;;4983098;28;20085;-59
2022/10/17 05:34:01;;;;;;;;;;;;;;;;;;4979208;28;20471;-60
2022/10/17 05:36:27;;;;;;;;;;;;;;;;;;4984915;28;22012;-61
2022/10/17 05:38:53;;;;;;;;;;;;;;;;;;4976602;28;19921;-60
2022/10/17 05:41:20;;;;;;;;;;;;;;;;;;4998470;28;20611;-61
2022/10/17 05:43:46;;;;;;;;;;;;;;;;;;4961431;28;19917;-61
2022/10/17 05:46:11;;;;;;;;;;;;;;;;;;4962339;28;19925;-61
2022/10/17 05:48:39;;;;;;;;;;;;;;;;;;4985256;28;19921;-61
2022/10/17 05:51:04;;;;;;;;;;;;;;;;;;4977924;28;19921;-60
2022/10/17 05:53:29;;;;;;;;;;;;;;;;;;4985777;28;19917;-61
2022/10/17 05:55:54;;;;;;;;;;;;;;;;;;4982978;28;19927;-60
2022/10/17 05:58:22;;;;;;;;;;;;;;;;;;4977844;28;20590;-61
2022/10/17 06:00:48;;;;;;;;;;;;;;;;;;4983569;28;20004;-61
2022/10/17 06:03:14;;;;;;;;;;;;;;;;;;4983196;28;20038;-61
2022/10/17 06:05:39;;;;;;;;;;;;;;;;;;4985300;28;20528;-61
2022/10/17 06:08:07;;;;;;;;;;;;;;;;;;4983727;28;19963;-61
2022/10/17 06:10:32;;;;;;;;;;;;;;;;;;4981878;28;19925;-60
2022/10/17 06:12:58;;;;;;;;;;;;;;;;;;4983427;28;19918;-61
2022/10/17 06:15:23;;;;;;;;;;;;;;;;;;4984805;28;20266;-62
2022/10/17 06:17:48;;;;;;;;;;;;;;;;;;4982735;28;20443;-61
2022/10/17 06:20:14;;;;;;;;;;;;;;;;;;4984509;28;19968;-60
2022/10/17 06:22:40;;;;;;;;;;;;;;;;;;4984195;28;19967;-62
2022/10/17 06:25:05;;;;;;;;;;;;;;;;;;4983157;28;19957;-61
2022/10/17 06:27:31;;;;;;;;;;;;;;;;;;4977744;28;19943;-60
2022/10/17 06:29:56;;;;;;;;;;;;;;;;;;4985642;28;21096;-61
2022/10/17 06:32:24;;;;;;;;;;;;;;;;;;4965133;28;19929;-61
2022/10/17 06:34:52;;;;;;;;;;;;;;;;;;4974517;28;19925;-61
2022/10/17 06:37:19;;;;;;;;;;;;;;;;;;4989537;28;20271;-61
2022/10/17 06:39:45;;;;;;;;;;;;;;;;;;4987699;28;19921;-61
2022/10/17 06:42:10;;;;;;;;;;;;;;;;;;4982295;28;20399;-60
2022/10/17 06:44:36;;;;;;;;;;;;;;;;;;4986053;28;19921;-61
2022/10/17 06:47:01;;;;;;;;;;;;;;;;;;4964875;28;19924;-60
2022/10/17 06:49:29;;;;;;;;;;;;;;;;;;4988198;28;19965;-60
2022/10/17 06:51:56;;;;;;;;;;;;;;;;;;4963920;28;20027;-60
2022/10/17 06:54:22;;;;;;;;;;;;;;;;;;4988601;28;19928;-59
2022/10/17 06:56:47;;;;;;;;;;;;;;;;;;4986550;28;19921;-62
2022/10/17 06:59:14;;;;;;;;;;;;;;;;;;4981901;28;19965;-59
2022/10/17 07:01:39;;;;;;;;;;;;;;;;;;4987035;28;19923;-59
2022/10/17 07:04:05;;;;;;;;;;;;;;;;;;4985011;28;19940;-60
2022/10/17 07:06:35;;;;;;;;;;;;;;;;;;4985212;28;20036;-62
2022/10/17 07:09:05;;;;;;;;;;;;;;;;;;4987748;28;19921;-60
2022/10/17 07:11:30;;;;;;;;;;;;;;;;;;4982482;28;19925;-59
2022/10/17 07:13:56;;;;;;;;;;;;;;;;;;4981072;28;19921;-60
2022/10/17 07:16:24;;;;;;;;;;;;;;;;;;4985962;28;20357;-60
2022/10/17 07:18:50;;;;;;;;;;;;;;;;;;4989107;28;19921;-60
2022/10/17 07:21:15;;;;;;;;;;;;;;;;;;4986547;28;19932;-60
2022/10/17 07:23:40;;;;;;;;;;;;;;;;;;4985512;28;19945;-61
2022/10/17 07:26:06;;;;;;;;;;;;;;;;;;4964278;28;19922;-59
2022/10/17 07:28:34;;;;;;;;;;;;;;;;;;4985014;28;19922;-60
2022/10/17 07:30:59;;;;;;;;;;;;;;;;;;4986299;28;20309;-60
2022/10/17 07:33:27;;;;;;;;;;;;;;;;;;4986088;28;19944;-60
2022/10/17 07:35:53;;;;;;;;;;;;;;;;;;4981878;28;20004;-60
2022/10/17 07:38:18;;;;;;;;;;;;;;;;;;4985722;28;19931;-59
2022/10/17 07:40:43;;;;;;;;;;;;;;;;;;4984310;28;21856;-59
2022/10/17 07:43:09;;;;;;;;;;;;;;;;;;4979019;28;20484;-60
2022/10/17 07:45:34;;;;;;;;;;;;;;;;;;4985339;28;20000;-60
2022/10/17 07:48:00;;;;;;;;;;;;;;;;;;4987798;28;19921;-60
2022/10/17 07:50:26;;;;;;;;;;;;;;;;;;4985462;28;19940;-60
2022/10/17 07:52:51;;;;;;;;;;;;;;;;;;4983183;28;20003;-60
2022/10/17 07:55:18;;;;;;;;;;;;;;;;;;4985790;28;19956;-61
2022/10/17 07:57:44;;;;;;;;;;;;;;;;;;4983647;28;20012;-61
2022/10/17 08:00:10;;;;;;;;;;;;;;;;;;4985773;28;19929;-61
2022/10/17 08:02:35;;;;;;;;;;;;;;;;;;4987178;28;19926;-61
2022/10/17 08:05:01;;;;;;;;;;;;;;;;;;4984864;28;19918;-61
2022/10/17 08:07:27;;;;;;;;;;;;;;;;;;4987143;28;19921;-60
2022/10/17 08:09:52;;;;;;;;;;;;;;;;;;4984358;28;20019;-62
2022/10/17 08:12:20;;;;;;;;;;;;;;;;;;4984516;28;20012;-60
2022/10/17 08:14:47;;;;;;;;;;;;;;;;;;4984832;28;19921;-60
2022/10/17 08:17:12;;;;;;;;;;;;;;;;;;4986012;28;20052;-60
2022/10/17 08:19:40;;;;;;;;;;;;;;;;;;4986942;28;19928;-60
2022/10/17 08:22:05;;;;;;;;;;;;;;;;;;4987408;28;19922;-60
2022/10/17 08:24:33;;;;;;;;;;;;;;;;;;4986383;28;19922;-60
2022/10/17 08:27:01;;;;;;;;;;;;;;;;;;4984828;28;20347;-60
2022/10/17 08:29:31;;;;;;;;;;;;;;;;;;4982855;28;20665;-60
2022/10/17 08:31:56;;;;;;;;;;;;;;;;;;4985137;28;20721;-60
2022/10/17 08:34:22;;;;;;;;;;;;;;;;;;4983966;28;19922;-61
2022/10/17 08:36:48;;;;;;;;;;;;;;;;;;4978484;28;20308;-60
2022/10/17 08:39:13;;;;;;;;;;;;;;;;;;4979553;28;19926;-59
2022/10/17 08:41:41;;;;;;;;;;;;;;;;;;4982219;28;19944;-59
2022/10/17 08:44:06;;;;;;;;;;;;;;;;;;4986904;28;19918;-59
2022/10/17 08:46:34;;;;;;;;;;;;;;;;;;4984148;28;20426;-60
2022/10/17 08:48:59;;;;;;;;;;;;;;;;;;4966915;28;19955;-62
2022/10/17 08:51:24;;;;;;;;;;;;;;;;;;4983486;28;20020;-59
2022/10/17 08:53:50;;;;;;;;;;;;;;;;;;4978159;28;20036;-62
2022/10/17 08:56:18;;;;;;;;;;;;;;;;;;4984310;28;19932;-62
2022/10/17 08:58:46;;;;;;;;;;;;;;;;;;4983635;28;19921;-61
2022/10/17 09:01:16;;;;;;;;;;;;;;;;;;4985989;28;19928;-61
2022/10/17 09:03:47;;;;;;;;;;;;;;;;;;4979485;28;20082;-61
2022/10/17 09:06:12;;;;;;;;;;;;;;;;;;4979020;28;20001;-61
2022/10/17 09:08:38;;;;;;;;;;;;;;;;;;4984339;28;19971;-60
2022/10/17 09:11:03;;;;;;;;;;;;;;;;;;4984170;28;19926;-60
2022/10/17 09:13:29;;;;;;;;;;;;;;;;;;4984391;28;19921;-60
2022/10/17 09:15:57;;;;;;;;;;;;;;;;;;4978571;28;19929;-60
2022/10/17 09:18:22;;;;;;;;;;;;;;;;;;4987713;28;19918;-59
2022/10/17 09:20:50;;;;;;;;;;;;;;;;;;4985780;28;19922;-62
2022/10/17 09:23:15;;;;;;;;;;;;;;;;;;4984313;28;19971;-60
2022/10/17 09:25:43;;;;;;;;;;;;;;;;;;4984619;28;20588;-60
2022/10/17 09:28:09;;;;;;;;;;;;;;;;;;4986489;28;19976;-60
2022/10/17 09:30:35;;;;;;;;;;;;;;;;;;4978140;28;19975;-60
2022/10/17 09:33:03;;;;;;;;;;;;;;;;;;4985625;28;19928;-59
2022/10/17 09:35:29;;;;;;;;;;;;;;;;;;4987521;28;19918;-58
2022/10/17 09:37:54;;;;;;;;;;;;;;;;;;4987184;28;19926;-57
2022/10/17 09:40:19;;;;;;;;;;;;;;;;;;4986013;28;20655;-59
2022/10/17 09:42:45;;;;;;;;;;;;;;;;;;4985146;28;19926;-59
2022/10/17 09:45:11;;;;;;;;;;;;;;;;;;4984446;28;19981;-58
2022/10/17 09:47:41;;;;;;;;;;;;;;;;;;4978527;28;19922;-58
2022/10/17 09:50:08;;;;;;;;;;;;;;;;;;4984506;28;20430;-58
2022/10/17 09:52:34;;;;;;;;;;;;;;;;;;4985066;28;20407;-60
2022/10/17 09:55:01;;;;;;;;;;;;;;;;;;4983863;28;19921;-58
2022/10/17 09:57:31;;;;;;;;;;;;;;;;;;4972453;28;20072;-58
2022/10/17 10:00:01;;;;;;;;;;;;;;;;;;4984224;28;20638;-58
2022/10/17 10:02:27;;;;;;;;;;;;;;;;;;4985407;28;20079;-59
2022/10/17 10:04:52;;;;;;;;;;;;;;;;;;4985079;28;20039;-59
2022/10/17 10:07:19;;;;;;;;;;;;;;;;;;4985197;28;20564;-58
2022/10/17 10:09:47;;;;;;;;;;;;;;;;;;4985279;28;19922;-59
2022/10/17 10:12:12;;;;;;;;;;;;;;;;;;4985145;28;19936;-59
2022/10/17 10:14:40;;;;;;;;;;;;;;;;;;4985750;28;21886;-59
2022/10/17 10:17:12;;;;;;;;;;;;;;;;;;4978936;28;19922;-60
2022/10/17 10:19:40;;;;;;;;;;;;;;;;;;4985390;28;20596;-60
2022/10/17 10:22:07;;;;;;;;;;;;;;;;;;4984556;28;20645;-59
2022/10/17 10:24:36;;;;;;;;;;;;;;;;;;4976756;28;20092;-59
2022/10/17 10:27:05;;;;;;;;;;;;;;;;;;4984843;28;19918;-59
2022/10/17 10:29:33;;;;;;;;;;;;;;;;;;4983115;28;19925;-59
2022/10/17 10:31:59;;;;;;;;;;;;;;;;;;4983397;28;20033;-59
2022/10/17 10:34:26;;;;;;;;;;;;;;;;;;4983915;28;19936;-58
2022/10/17 10:36:54;;;;;;;;;;;;;;;;;;4982937;28;19917;-58
2022/10/17 10:39:19;;;;;;;;;;;;;;;;;;4976304;28;20067;-58
2022/10/17 10:41:48;;;;;;;;;;;;;;;;;;4983747;28;19964;-59
2022/10/17 10:44:16;;;;;;;;;;;;;;;;;;4984462;28;19918;-59
2022/10/17 10:46:41;;;;;;;;;;;;;;;;;;4983068;28;19975;-59
2022/10/17 10:49:09;;;;;;;;;;;;;;;;;;4985329;28;19926;-59
2022/10/17 10:51:34;;;;;;;;;;;;;;;;;;4984562;28;19925;-59
2022/10/17 10:54:02;;;;;;;;;;;;;;;;;;4984273;28;19922;-59
2022/10/17 10:56:29;;;;;;;;;;;;;;;;;;4984921;28;20724;-59
2022/10/17 10:58:55;;;;;;;;;;;;;;;;;;4982820;28;19945;-59
2022/10/17 11:01:22;;;;;;;;;;;;;;;;;;4983343;28;20040;-60
2022/10/17 11:03:48;;;;;;;;;;;;;;;;;;4982909;28;19932;-60
2022/10/17 11:06:14;;;;;;;;;;;;;;;;;;4983591;28;19917;-60
2022/10/17 11:08:39;;;;;;;;;;;;;;;;;;4984777;28;19976;-59
2022/10/17 11:11:04;;;;;;;;;;;;;;;;;;4984187;28;19922;-59
2022/10/17 11:13:32;;;;;;;;;;;;;;;;;;4983965;28;20831;-59
2022/10/17 11:15:57;;;;;;;;;;;;;;;;;;4986032;28;20910;-61
2022/10/17 11:18:23;;;;;;;;;;;;;;;;;;4988503;28;19925;-58
2022/10/17 11:20:51;;;;;;;;;;;;;;;;;;4987906;28;19921;-60
2022/10/17 11:23:21;;;;;;;;;;;;;;;;;;4985336;28;19965;-60
2022/10/17 11:25:48;;;;;;;;;;;;;;;;;;4990492;28;19957;-60
2022/10/17 11:28:16;;;;;;;;;;;;;;;;;;4986967;28;20080;-60
2022/10/17 11:30:41;;;;;;;;;;;;;;;;;;4981000;28;19917;-59
2022/10/17 11:33:07;;;;;;;;;;;;;;;;;;4988892;28;19922;-58
2022/10/17 11:35:35;;;;;;;;;;;;;;;;;;4985864;28;19917;-61
2022/10/17 11:38:01;;;;;;;;;;;;;;;;;;4987095;28;21859;-59
2022/10/17 11:40:28;;;;;;;;;;;;;;;;;;4986503;28;19992;-59
2022/10/17 11:42:58;;;;;;;;;;;;;;;;;;4983912;28;19921;-59
2022/10/17 11:45:24;;;;;;;;;;;;;;;;;;4987388;28;19968;-59
2022/10/17 11:47:54;;;;;;;;;;;;;;;;;;4980598;28;19921;-60
2022/10/17 11:50:19;;;;;;;;;;;;;;;;;;4989334;28;19936;-60
2022/10/17 11:52:45;;;;;;;;;;;;;;;;;;4986667;28;19922;-61
2022/10/17 11:55:11;;;;;;;;;;;;;;;;;;4986234;28;19921;-60
2022/10/17 11:57:39;;;;;;;;;;;;;;;;;;4979900;28;19917;-60
2022/10/17 12:00:06;;;;;;;;;;;;;;;;;;4981913;28;19949;-60
2022/10/17 12:02:32;;;;;;;;;;;;;;;;;;4985491;28;19922;-62
2022/10/17 12:04:58;;;;;;;;;;;;;;;;;;4978126;28;19922;-62
2022/10/17 12:07:23;;;;;;;;;;;;;;;;;;4985212;28;19925;-59
2022/10/17 12:09:50;;;;;;;;;;;;;;;;;;4965317;28;19921;-59
2022/10/17 12:12:16;;;;;;;;;;;;;;;;;;4984826;28;19976;-59
2022/10/17 12:14:41;;;;;;;;;;;;;;;;;;4985326;28;20050;-60
2022/10/17 12:17:09;;;;;;;;;;;;;;;;;;4985915;28;20013;-59
2022/10/17 12:19:34;;;;;;;;;;;;;;;;;;4986947;28;19952;-60
2022/10/17 12:22:00;;;;;;;;;;;;;;;;;;4986094;28;19921;-60
2022/10/17 12:24:30;;;;;;;;;;;;;;;;;;4983335;28;20424;-60
2022/10/17 12:26:58;;;;;;;;;;;;;;;;;;4985551;28;20016;-60
2022/10/17 12:29:23;;;;;;;;;;;;;;;;;;4986651;28;19921;-60
2022/10/17 12:31:51;;;;;;;;;;;;;;;;;;4984823;28;20308;-59
2022/10/17 12:34:16;;;;;;;;;;;;;;;;;;4986157;28;19936;-61
2022/10/17 12:36:42;;;;;;;;;;;;;;;;;;4979981;28;19930;-60
2022/10/17 12:39:12;;;;;;;;;;;;;;;;;;4983697;28;20638;-59
2022/10/17 12:41:40;;;;;;;;;;;;;;;;;;4989174;28;19921;-59
2022/10/17 12:44:05;;;;;;;;;;;;;;;;;;4988166;28;20300;-60
2022/10/17 12:46:30;;;;;;;;;;;;;;;;;;4983225;28;19921;-60
2022/10/17 12:48:58;;;;;;;;;;;;;;;;;;4986478;28;20432;-59
2022/10/17 12:51:24;;;;;;;;;;;;;;;;;;4984910;28;20015;-59
2022/10/17 12:53:49;;;;;;;;;;;;;;;;;;4985738;28;19921;-59
2022/10/17 12:56:15;;;;;;;;;;;;;;;;;;4983578;28;19922;-59
2022/10/17 12:58:40;;;;;;;;;;;;;;;;;;4983818;28;19948;-59
2022/10/17 13:01:07;;;;;;;;;;;;;;;;;;4984183;28;19922;-59
2022/10/17 13:03:32;;;;;;;;;;;;;;;;;;4962663;28;19930;-59
2022/10/17 13:05:58;;;;;;;;;;;;;;;;;;4980098;28;19921;-60
2022/10/17 13:08:28;;;;;;;;;;;;;;;;;;4984805;28;19929;-59
2022/10/17 13:10:56;;;;;;;;;;;;;;;;;;4984022;28;19918;-59
2022/10/17 13:13:21;;;;;;;;;;;;;;;;;;4985503;28;19922;-60
2022/10/17 13:15:49;;;;;;;;;;;;;;;;;;4984866;28;19921;-58
2022/10/17 13:18:22;;;;;;;;;;;;;;;;;;4986101;28;20066;-59
2022/10/17 13:20:48;;;;;;;;;;;;;;;;;;4984594;28;20457;-58
2022/10/17 13:23:14;;;;;;;;;;;;;;;;;;4984212;28;20345;-59
2022/10/17 13:25:42;;;;;;;;;;;;;;;;;;4984490;28;19940;-58
2022/10/17 13:28:07;;;;;;;;;;;;;;;;;;4983357;28;19921;-56
2022/10/17 13:30:37;;;;;;;;;;;;;;;;;;4983810;28;19989;-58
2022/10/17 13:33:03;;;;;;;;;;;;;;;;;;4962167;28;19956;-57
2022/10/17 13:35:28;;;;;;;;;;;;;;;;;;4986428;28;19922;-58
2022/10/17 13:37:56;;;;;;;;;;;;;;;;;;4982117;28;19922;-58
2022/10/17 13:40:24;;;;;;;;;;;;;;;;;;4984326;28;20328;-60
2022/10/17 13:42:50;;;;;;;;;;;;;;;;;;4980479;28;19933;-58
2022/10/17 13:45:15;;;;;;;;;;;;;;;;;;4960714;28;19921;-58
2022/10/17 13:47:40;;;;;;;;;;;;;;;;;;4985776;28;21783;-58
2022/10/17 13:50:06;;;;;;;;;;;;;;;;;;4982757;28;19937;-58
2022/10/17 13:52:32;;;;;;;;;;;;;;;;;;4985591;28;19925;-58
2022/10/17 13:54:57;;;;;;;;;;;;;;;;;;4984200;28;20004;-58
2022/10/17 13:57:22;;;;;;;;;;;;;;;;;;4982271;28;19925;-59
2022/10/17 13:59:48;;;;;;;;;;;;;;;;;;4981450;28;19925;-59
2022/10/17 14:02:13;;;;;;;;;;;;;;;;;;4984956;28;20365;-59
2022/10/17 14:04:39;;;;;;;;;;;;;;;;;;4984741;28;20472;-58
2022/10/17 14:07:04;;;;;;;;;;;;;;;;;;4983046;28;19928;-58
2022/10/17 14:09:32;;;;;;;;;;;;;;;;;;4984855;28;19925;-59
2022/10/17 14:11:57;;;;;;;;;;;;;;;;;;4984243;28;19932;-60
2022/10/17 14:14:25;;;;;;;;;;;;;;;;;;4984074;28;20071;-60
2022/10/17 14:16:52;;;;;;;;;;;;;;;;;;4969587;28;19921;-60
2022/10/17 14:19:17;;;;;;;;;;;;;;;;;;4983250;28;19932;-60
2022/10/17 14:21:42;;;;;;;;;;;;;;;;;;4964811;28;20289;-61
2022/10/17 14:24:11;;;;;;;;;;;;;;;;;;4984527;28;19924;-59
2022/10/17 14:26:39;;;;;;;;;;;;;;;;;;4996414;28;19921;-58
2022/10/17 14:29:04;;;;;;;;;;;;;;;;;;4984180;28;19926;-58
2022/10/17 14:31:29;;;;;;;;;;;;;;;;;;4981845;28;19952;-58
2022/10/17 14:33:55;;;;;;;;;;;;;;;;;;4984499;28;20020;-59
2022/10/17 14:36:21;;;;;;;;;;;;;;;;;;4983434;28;20024;-59
2022/10/17 14:38:54;;;;;;;;;;;;;;;;;;4981764;28;19932;-59
2022/10/17 14:41:19;;;;;;;;;;;;;;;;;;4984089;28;19922;-59
2022/10/17 14:43:45;;;;;;;;;;;;;;;;;;4985108;28;20134;-59
2022/10/17 14:46:13;;;;;;;;;;;;;;;;;;4960588;28;19921;-59
2022/10/17 14:48:43;;;;;;;;;;;;;;;;;;4978323;28;20040;-59
2022/10/17 14:51:08;;;;;;;;;;;;;;;;;;4986390;28;20300;-59
2022/10/17 14:53:34;;;;;;;;;;;;;;;;;;4988015;28;19921;-60
2022/10/17 14:56:01;;;;;;;;;;;;;;;;;;4990471;28;19925;-60
2022/10/17 14:58:27;;;;;;;;;;;;;;;;;;4988123;28;19929;-60
2022/10/17 15:00:52;;;;;;;;;;;;;;;;;;4989041;28;20012;-60
2022/10/17 15:03:22;;;;;;;;;;;;;;;;;;4988293;28;19921;-60
2022/10/17 15:05:50;;;;;;;;;;;;;;;;;;4988977;28;19921;-60
2022/10/17 15:08:16;;;;;;;;;;;;;;;;;;4987924;28;19936;-60
2022/10/17 15:10:42;;;;;;;;;;;;;;;;;;4986985;28;19921;-59
2022/10/17 15:13:11;;;;;;;;;;;;;;;;;;4987125;28;20464;-60
2022/10/17 15:15:36;;;;;;;;;;;;;;;;;;4985173;28;19921;-60
2022/10/17 15:18:04;;;;;;;;;;;;;;;;;;4986651;28;19918;-60
2022/10/17 15:20:29;;;;;;;;;;;;;;;;;;4990130;28;19944;-60
2022/10/17 15:22:57;;;;;;;;;;;;;;;;;;4988092;28;19933;-59
2022/10/17 15:25:25;;;;;;;;;;;;;;;;;;4987509;28;20927;-61
2022/10/17 15:27:50;;;;;;;;;;;;;;;;;;4983912;28;21986;-59
2022/10/17 15:30:16;;;;;;;;;;;;;;;;;;4986666;28;19924;-60
2022/10/17 15:32:45;;;;;;;;;;;;;;;;;;4987223;28;20020;-59
2022/10/17 15:35:11;;;;;;;;;;;;;;;;;;4987395;28;19922;-59
2022/10/17 15:37:37;;;;;;;;;;;;;;;;;;4985357;28;20352;-59
2022/10/17 15:40:02;;;;;;;;;;;;;;;;;;4984502;28;19918;-59
2022/10/17 15:42:30;;;;;;;;;;;;;;;;;;4987595;28;19921;-60
2022/10/17 15:44:55;;;;;;;;;;;;;;;;;;4972281;28;20432;-59
2022/10/17 15:47:21;;;;;;;;;;;;;;;;;;4985061;28;19928;-59
2022/10/17 15:49:48;;;;;;;;;;;;;;;;;;4986289;28;19921;-59
2022/10/17 15:52:14;;;;;;;;;;;;;;;;;;4980928;28;19937;-60
2022/10/17 15:54:42;;;;;;;;;;;;;;;;;;4987670;28;20100;-60
2022/10/17 15:57:10;;;;;;;;;;;;;;;;;;4985482;28;19922;-60
2022/10/17 15:59:35;;;;;;;;;;;;;;;;;;4985999;28;19928;-60
2022/10/17 16:02:00;;;;;;;;;;;;;;;;;;4967708;28;19929;-60
2022/10/17 16:04:29;;;;;;;;;;;;;;;;;;4979896;28;19980;-60
2022/10/17 16:06:54;;;;;;;;;;;;;;;;;;4984881;28;19918;-59
2022/10/17 16:09:22;;;;;;;;;;;;;;;;;;4986056;28;20937;-59
2022/10/17 16:11:48;;;;;;;;;;;;;;;;;;4987659;28;20559;-59
2022/10/17 16:14:13;;;;;;;;;;;;;;;;;;4987594;28;20868;-59
2022/10/17 16:16:45;;;;;;;;;;;;;;;;;;4985645;28;19928;-59
2022/10/17 16:19:13;;;;;;;;;;;;;;;;;;4985576;28;19921;-59
2022/10/17 16:21:39;;;;;;;;;;;;;;;;;;4984435;28;19953;-59
2022/10/17 16:24:06;;;;;;;;;;;;;;;;;;4986013;28;19918;-59
2022/10/17 16:29:50;;;;;;;;;;;;;;;;;;4983956;28;19928;-59
2022/10/17 16:32:16;;;;;;;;;;;;;;;;;;4987206;28;19960;-59
2022/10/17 16:34:41;;;;;;;;;;;;;;;;;;4986682;28;19932;-59
2022/10/17 16:37:06;;;;;;;;;;;;;;;;;;4979658;28;20580;-60
2022/10/17 16:39:32;;;;;;;;;;;;;;;;;;4972144;28;19926;-59
2022/10/17 16:41:59;;;;;;;;;;;;;;;;;;4986978;28;19926;-60